| time (UTC) | temp C | wind direction | speed KPH | gust KPH | rain 1hr cm | rain 24hr cm | rain mn cm | humidity % | barometer mb |
| 20260502194437 | 17 | 20 | 8.0 | 9.7 | 0.00 | 0.00 | 0.00 | 11 | 1017.4 |
| 20260502193933 | 17 | 20 | 9.7 | 16.1 | 0.00 | 0.00 | 0.00 | 12 | 1017.4 |
| 20260502193431 | 17 | 20 | 14.5 | 24.1 | 0.00 | 0.00 | 0.00 | 11 | 1017.5 |
| 20260502192926 | 17 | 20 | 14.5 | 16.1 | 0.00 | 0.00 | 0.00 | 11 | 1017.5 |
| 20260502192423 | 17 | 20 | 4.8 | 8.0 | 0.00 | 0.00 | 0.00 | 13 | 1017.5 |
| 20260502191920 | 17 | 20 | 9.7 | 12.9 | 0.00 | 0.00 | 0.00 | 11 | 1017.6 |
| 20260502191418 | 17 | 20 | 6.4 | 12.9 | 0.00 | 0.00 | 0.00 | 12 | 1017.4 |
| 20260502190915 | 17 | 21 | 14.5 | 14.5 | 0.00 | 0.00 | 0.00 | 11 | 1017.8 |
| 20260502190412 | 17 | 22 | 8.0 | 9.7 | 0.00 | 0.00 | 0.00 | 13 | 1017.7 |
| 20260502185909 | 17 | 20 | 11.3 | 22.5 | 0.00 | 0.00 | 0.00 | 13 | 1017.9 |
| 20260502185404 | 17 | 20 | 8.0 | 14.5 | 0.00 | 0.00 | 0.00 | 13 | 1018.1 |
| 20260502184901 | 16 | 20 | 8.0 | 11.3 | 0.00 | 0.00 | 0.00 | 14 | 1018.1 |
| 20260502184356 | 17 | 20 | 11.3 | 17.7 | 0.00 | 0.00 | 0.00 | 13 | 1018.0 |
| 20260502183854 | 16 | 20 | 6.4 | 11.3 | 0.00 | 0.00 | 0.00 | 15 | 1017.9 |
| 20260502183349 | 16 | 25 | 4.8 | 8.0 | 0.00 | 0.00 | 0.00 | 13 | 1018.0 |
| 20260502182845 | 16 | 26 | 9.7 | 12.9 | 0.00 | 0.00 | 0.00 | 15 | 1018.2 |
| 20260502182341 | 16 | 20 | 12.9 | 16.1 | 0.00 | 0.00 | 0.00 | 14 | 1018.1 |
| 20260502181837 | 16 | 20 | 8.0 | 12.9 | 0.00 | 0.00 | 0.00 | 14 | 1018.2 |
| 20260502181336 | 16 | 20 | 9.7 | 17.7 | 0.00 | 0.00 | 0.00 | 15 | 1018.0 |
| 20260502180834 | 16 | 20 | 9.7 | 14.5 | 0.00 | 0.00 | 0.00 | 15 | 1018.2 |
| 20260502180331 | 16 | 20 | 6.4 | 8.0 | 0.00 | 0.00 | 0.00 | 16 | 1018.6 |
| 20260502170249 | 15 | 20 | 8.0 | 17.7 | 0.00 | 0.00 | 0.00 | 17 | 1018.4 |
| 20260502164237 | 15 | 20 | 16.1 | 17.7 | 0.00 | 0.00 | 0.00 | 15 | 1018.4 |
| 20260502163732 | 15 | 20 | 14.5 | 17.7 | 0.00 | 0.00 | 0.00 | 16 | 1018.4 |
| 20260502163229 | 15 | 20 | 17.7 | 27.4 | 0.00 | 0.00 | 0.00 | 15 | 1018.2 |
| 20260502162726 | 15 | 20 | 20.9 | 29.0 | 0.00 | 0.00 | 0.00 | 15 | 1018.4 |
| 20260502162222 | 15 | 20 | 16.1 | 27.4 | 0.00 | 0.00 | 0.00 | 14 | 1018.2 |
| 20260502161719 | 15 | 20 | 14.5 | 20.9 | 0.00 | 0.00 | 0.00 | 14 | 1018.1 |
| 20260502161215 | 15 | 20 | 8.0 | 9.7 | 0.00 | 0.00 | 0.00 | 14 | 1018.1 |
| 20260502160714 | 15 | 20 | 12.9 | 17.7 | 0.00 | 0.00 | 0.00 | 14 | 1018.1 |
| 20260502160213 | 15 | 20 | 17.7 | 22.5 | 0.00 | 0.00 | 0.00 | 13 | 1018.1 |
| 20260502152127 | 15 | 20 | 17.7 | 17.7 | 0.00 | 0.00 | 0.00 | 13 | 1017.8 |
| 20260502151624 | 15 | 20 | 14.5 | 16.1 | 0.00 | 0.00 | 0.00 | 18 | 1017.8 |
| 20260502151121 | 15 | 20 | 0.0 | 0.0 | 0.00 | 0.00 | 0.00 | 18 | 1017.9 |
| 20260502150619 | 14 | 20 | 0.0 | 0.0 | 0.00 | 0.00 | 0.00 | 20 | 1017.6 |
| 20260502150115 | 13 | 20 | 1.6 | 1.6 | 0.00 | 0.00 | 0.00 | 21 | 1017.7 |
| 20260502130503 | 6 | 64 | 11.3 | 12.9 | 0.00 | 0.00 | 0.00 | 38 | 1016.6 |
| 20260502123446 | 4 | 49 | 12.9 | 14.5 | 0.00 | 0.00 | 0.00 | 43 | 1016.0 |
| 20260502122943 | 4 | 49 | 14.5 | 17.7 | 0.00 | 0.00 | 0.00 | 42 | 1016.0 |
| 20260502122439 | 4 | 46 | 12.9 | 16.1 | 0.00 | 0.00 | 0.00 | 42 | 1015.8 |
| 20260502121938 | 4 | 38 | 12.9 | 14.5 | 0.00 | 0.00 | 0.00 | 42 | 1015.8 |
| 20260502121434 | 3 | 28 | 9.7 | 11.3 | 0.00 | 0.00 | 0.00 | 43 | 1015.8 |
| 20260502120932 | 3 | 20 | 9.7 | 12.9 | 0.00 | 0.00 | 0.00 | 44 | 1016.0 |
| 20260502120428 | 3 | 20 | 11.3 | 12.9 | 0.00 | 0.00 | 0.00 | 45 | 1016.0 |
| 20260502115925 | 3 | 20 | 9.7 | 11.3 | 0.00 | 0.00 | 0.00 | 45 | 1016.0 |
| 20260502115422 | 3 | 20 | 11.3 | 12.9 | 0.00 | 0.00 | 0.00 | 45 | 1015.9 |
| 20260502114918 | 3 | 20 | 6.4 | 8.0 | 0.00 | 0.00 | 0.00 | 45 | 1016.1 |
| 20260502114415 | 3 | 20 | 8.0 | 9.7 | 0.00 | 0.00 | 0.00 | 44 | 1016.0 |
| 20260502113913 | 3 | 20 | 8.0 | 11.3 | 0.00 | 0.00 | 0.00 | 46 | 1016.0 |
| 20260502113410 | 3 | 20 | 8.0 | 9.7 | 0.00 | 0.00 | 0.00 | 46 | 1015.9 |
| 20260502112909 | 3 | 20 | 9.7 | 11.3 | 0.00 | 0.00 | 0.00 | 45 | 1016.0 |
| 20260502112406 | 3 | 20 | 9.7 | 11.3 | 0.00 | 0.00 | 0.00 | 46 | 1016.0 |
| 20260502111903 | 4 | 20 | 9.7 | 11.3 | 0.00 | 0.00 | 0.00 | 45 | 1015.9 |
| 20260502111400 | 3 | 20 | 6.4 | 9.7 | 0.00 | 0.00 | 0.00 | 47 | 1016.0 |
| 20260502110857 | 3 | 20 | 8.0 | 9.7 | 0.00 | 0.00 | 0.00 | 49 | 1015.9 |
| 20260502110355 | 3 | 20 | 8.0 | 9.7 | 0.00 | 0.00 | 0.00 | 49 | 1016.0 |
| 20260502105852 | 3 | 20 | 9.7 | 11.3 | 0.00 | 0.00 | 0.00 | 49 | 1015.9 |
| 20260502105349 | 3 | 20 | 8.0 | 12.9 | 0.00 | 0.00 | 0.00 | 51 | 1015.8 |
| 20260502104847 | 2 | 20 | 6.4 | 8.0 | 0.00 | 0.00 | 0.00 | 52 | 1015.8 |
| 20260502104344 | 3 | 20 | 6.4 | 8.0 | 0.00 | 0.00 | 0.00 | 52 | 1016.1 |
| 20260502103841 | 3 | 20 | 4.8 | 8.0 | 0.00 | 0.00 | 0.00 | 51 | 1016.0 |
| 20260502103339 | 2 | 20 | 6.4 | 8.0 | 0.00 | 0.00 | 0.00 | 52 | 1015.8 |
| 20260502102836 | 3 | 20 | 9.7 | 11.3 | 0.00 | 0.00 | 0.00 | 51 | 1015.6 |
| 20260502102332 | 3 | 20 | 8.0 | 11.3 | 0.00 | 0.00 | 0.00 | 50 | 1015.9 |
| 20260502101830 | 3 | 20 | 6.4 | 8.0 | 0.00 | 0.00 | 0.00 | 49 | 1016.0 |
| 20260502101328 | 3 | 20 | 8.0 | 9.7 | 0.00 | 0.00 | 0.00 | 48 | 1016.4 |
| 20260502100826 | 3 | 20 | 6.4 | 8.0 | 0.00 | 0.00 | 0.00 | 47 | 1016.1 |
| 20260502100325 | 4 | 20 | 8.0 | 9.7 | 0.00 | 0.00 | 0.00 | 46 | 1015.9 |
| 20260502091259 | 4 | 20 | 6.4 | 8.0 | 0.00 | 0.00 | 0.00 | 44 | 1015.6 |
| 20260502090756 | 5 | 20 | 6.4 | 8.0 | 0.00 | 0.00 | 0.00 | 43 | 1015.4 |
| 20260502090253 | 4 | 20 | 8.0 | 9.7 | 0.00 | 0.00 | 0.00 | 44 | 1015.5 |
| 20260502071148 | 8 | 20 | 6.4 | 8.0 | 0.00 | 0.00 | 0.00 | 27 | 1016.1 |
| 20260502070646 | 8 | 20 | 6.4 | 8.0 | 0.00 | 0.00 | 0.00 | 30 | 1016.1 |
| 20260502070143 | 8 | 20 | 4.8 | 4.8 | 0.00 | 0.00 | 0.00 | 30 | 1016.0 |
| 20260502065641 | 8 | 20 | 4.8 | 4.8 | 0.00 | 0.00 | 0.00 | 31 | 1016.1 |
| 20260502065138 | 6 | 20 | 3.2 | 3.2 | 0.00 | 0.00 | 0.00 | 36 | 1015.8 |
| 20260502064638 | 6 | 20 | 8.0 | 8.0 | 0.00 | 0.00 | 0.00 | 39 | 1016.3 |
| 20260502064134 | 7 | 20 | 4.8 | 4.8 | 0.00 | 0.00 | 0.00 | 32 | 1016.1 |
| 20260502063632 | 10 | 20 | 8.0 | 9.7 | 0.00 | 0.00 | 0.00 | 18 | 1016.0 |
| 20260502063130 | 10 | 20 | 11.3 | 12.9 | 0.00 | 0.00 | 0.00 | 22 | 1016.1 |
| 20260502062626 | 11 | 20 | 14.5 | 16.1 | 0.00 | 0.00 | 0.00 | 18 | 1016.3 |
| 20260502062124 | 11 | 20 | 11.3 | 12.9 | 0.00 | 0.00 | 0.00 | 17 | 1016.0 |
| 20260502061622 | 13 | 20 | 6.4 | 8.0 | 0.00 | 0.00 | 0.00 | 10 | 1016.0 |
| 20260502061120 | 12 | 20 | 4.8 | 4.8 | 0.00 | 0.00 | 0.00 | 11 | 1016.0 |
| 20260502060619 | 12 | 20 | 0.0 | 0.0 | 0.00 | 0.00 | 0.00 | 12 | 1016.3 |
| 20260502060116 | 12 | 20 | 0.0 | 0.0 | 0.00 | 0.00 | 0.00 | 11 | 1016.0 |
| 20260502055614 | 12 | 20 | 1.6 | 1.6 | 0.00 | 0.00 | 0.00 | 11 | 1015.9 |
| 20260502055112 | 12 | 20 | 4.8 | 8.0 | 0.00 | 0.00 | 0.00 | 11 | 1015.9 |
| 20260502054611 | 12 | 20 | 4.8 | 4.8 | 0.00 | 0.00 | 0.00 | 11 | 1015.8 |
| 20260502054108 | 12 | 20 | 4.8 | 4.8 | 0.00 | 0.00 | 0.00 | 11 | 1015.9 |
| 20260502053605 | 12 | 20 | 4.8 | 8.0 | 0.00 | 0.00 | 0.00 | 11 | 1015.9 |
| 20260502053102 | 13 | 20 | 4.8 | 4.8 | 0.00 | 0.00 | 0.00 | 10 | 1016.0 |
| 20260502052600 | 12 | 20 | 6.4 | 8.0 | 0.00 | 0.00 | 0.00 | 10 | 1016.1 |
| 20260502052058 | 12 | 20 | 6.4 | 8.0 | 0.00 | 0.00 | 0.00 | 12 | 1016.0 |
| 20260502051556 | 12 | 20 | 3.2 | 3.2 | 0.00 | 0.00 | 0.00 | 11 | 1016.0 |
| 20260502051054 | 13 | 20 | 4.8 | 4.8 | 0.00 | 0.00 | 0.00 | 10 | 1016.1 |
| 20260502050549 | 13 | 20 | 6.4 | 8.0 | 0.00 | 0.00 | 0.00 | 10 | 1016.1 |
| 20260502050046 | 13 | 20 | 4.8 | 4.8 | 0.00 | 0.00 | 0.00 | 10 | 1016.3 |
| 20260502045543 | 13 | 20 | 4.8 | 4.8 | 0.00 | 0.00 | 0.00 | 10 | 1016.0 |
| 20260502045040 | 13 | 20 | 3.2 | 3.2 | 0.00 | 0.00 | 0.00 | 10 | 1016.0 |
| 20260502044537 | 13 | 20 | 0.0 | 0.0 | 0.00 | 0.00 | 0.00 | 10 | 1016.0 |
| 20260502044033 | 13 | 20 | 0.0 | 0.0 | 0.00 | 0.00 | 0.00 | 10 | 1016.3 |
| 20260502043531 | 13 | 20 | 1.6 | 3.2 | 0.00 | 0.00 | 0.00 | 10 | 1016.4 |
| 20260502043027 | 13 | 20 | 3.2 | 3.2 | 0.00 | 0.00 | 0.00 | 10 | 1016.3 |
| 20260502042522 | 13 | 20 | 4.8 | 4.8 | 0.00 | 0.00 | 0.00 | 10 | 1016.3 |
| 20260502042020 | 13 | 20 | 0.0 | 0.0 | 0.00 | 0.00 | 0.00 | 10 | 1016.1 |
| 20260502041518 | 13 | 20 | 0.0 | 0.0 | 0.00 | 0.00 | 0.00 | 10 | 1016.1 |
| 20260502041015 | 13 | 20 | 0.0 | 0.0 | 0.00 | 0.00 | 0.00 | 10 | 1016.1 |
| 20260502040511 | 13 | 20 | 0.0 | 0.0 | 0.00 | 0.00 | 0.00 | 10 | 1016.0 |
| 20260502040009 | 13 | 20 | 0.0 | 0.0 | 0.00 | 0.00 | 0.00 | 10 | 1016.1 |
| 20260502035504 | 13 | 20 | 3.2 | 3.2 | 0.00 | 0.00 | 0.00 | 10 | 1016.0 |
| 20260502035002 | 14 | 20 | 1.6 | 3.2 | 0.00 | 0.00 | 0.00 | 10 | 1016.0 |
| 20260502034459 | 13 | 20 | 0.0 | 0.0 | 0.00 | 0.00 | 0.00 | 10 | 1015.9 |
| 20260502033958 | 13 | 20 | 0.0 | 0.0 | 0.00 | 0.00 | 0.00 | 10 | 1016.3 |
| 20260502033455 | 13 | 20 | 0.0 | 0.0 | 0.00 | 0.00 | 0.00 | 10 | 1015.8 |
| 20260502032952 | 14 | 20 | 0.0 | 0.0 | 0.00 | 0.00 | 0.00 | 10 | 1016.0 |
| 20260502032448 | 14 | 21 | 0.0 | 0.0 | 0.00 | 0.00 | 0.00 | 10 | 1015.9 |
| 20260502031945 | 15 | 24 | 3.2 | 3.2 | 0.00 | 0.00 | 0.00 | 10 | 1015.9 |
| 20260502031444 | 16 | 27 | 3.2 | 4.8 | 0.00 | 0.00 | 0.00 | 10 | 1015.5 |
| 20260502030941 | 16 | 30 | 8.0 | 9.7 | 0.00 | 0.00 | 0.00 | 10 | 1015.8 |
| 20260502030439 | 16 | 34 | 9.7 | 11.3 | 0.00 | 0.00 | 0.00 | 10 | 1015.7 |
| 20260502025931 | 16 | 31 | 8.0 | 11.3 | 0.00 | 0.00 | 0.00 | 10 | 1015.8 |
| 20260502025428 | 16 | 33 | 11.3 | 11.3 | 0.00 | 0.00 | 0.00 | 10 | 1015.7 |
| 20260502024926 | 16 | 37 | 8.0 | 9.7 | 0.00 | 0.00 | 0.00 | 10 | 1015.7 |
| 20260502024424 | 16 | 31 | 8.0 | 9.7 | 0.00 | 0.00 | 0.00 | 10 | 1015.7 |
| 20260502023922 | 16 | 30 | 4.8 | 4.8 | 0.00 | 0.00 | 0.00 | 10 | 1015.6 |
| 20260502023419 | 16 | 33 | 8.0 | 9.7 | 0.00 | 0.00 | 0.00 | 10 | 1015.7 |
| 20260502022916 | 16 | 35 | 8.0 | 9.7 | 0.00 | 0.00 | 0.00 | 10 | 1015.5 |
| 20260502022412 | 17 | 40 | 9.7 | 11.3 | 0.00 | 0.00 | 0.00 | 10 | 1015.5 |
| 20260502021909 | 17 | 45 | 11.3 | 11.3 | 0.00 | 0.00 | 0.00 | 10 | 1015.5 |
| 20260502021407 | 17 | 43 | 8.0 | 11.3 | 0.00 | 0.00 | 0.00 | 10 | 1015.3 |
| 20260502020904 | 17 | 35 | 9.7 | 12.9 | 0.00 | 0.00 | 0.00 | 10 | 1015.1 |
| 20260502020402 | 18 | 35 | 9.7 | 11.3 | 0.00 | 0.00 | 0.00 | 10 | 1015.4 |
| 20260502015858 | 18 | 39 | 8.0 | 11.3 | 0.00 | 0.00 | 0.00 | 10 | 1015.4 |
| 20260502015356 | 19 | 43 | 1.6 | 3.2 | 0.00 | 0.00 | 0.00 | 10 | 1015.5 |
| 20260502014853 | 19 | 50 | 8.0 | 9.7 | 0.00 | 0.00 | 0.00 | 10 | 1015.3 |
| 20260502014350 | 19 | 54 | 8.0 | 9.7 | 0.00 | 0.00 | 0.00 | 10 | 1015.6 |
| 20260502013845 | 20 | 69 | 8.0 | 12.9 | 0.00 | 0.00 | 0.00 | 10 | 1015.6 |
| 20260502013341 | 20 | 81 | 4.8 | 8.0 | 0.00 | 0.00 | 0.00 | 10 | 1015.6 |
| 20260502012838 | 20 | 84 | 9.7 | 11.3 | 0.00 | 0.00 | 0.00 | 10 | 1015.5 |
| 20260502012337 | 20 | 81 | 9.7 | 11.3 | 0.00 | 0.00 | 0.00 | 10 | 1015.1 |
| 20260502011833 | 20 | 70 | 8.0 | 11.3 | 0.00 | 0.00 | 0.00 | 10 | 1015.4 |
| 20260502011329 | 20 | 60 | 9.7 | 12.9 | 0.00 | 0.00 | 0.00 | 10 | 1015.5 |
| 20260502010827 | 20 | 42 | 8.0 | 11.3 | 0.00 | 0.00 | 0.00 | 10 | 1015.5 |
| 20260502010323 | 20 | 32 | 8.0 | 9.7 | 0.00 | 0.00 | 0.00 | 10 | 1015.4 |
| 20260502005820 | 20 | 22 | 8.0 | 8.0 | 0.00 | 0.00 | 0.00 | 10 | 1015.6 |
| 20260502005318 | 21 | 20 | 6.4 | 8.0 | 0.00 | 0.00 | 0.00 | 10 | 1015.6 |
| 20260502004815 | 21 | 20 | 12.9 | 16.1 | 0.00 | 0.00 | 0.00 | 10 | 1015.6 |
| 20260502004311 | 21 | 20 | 4.8 | 4.8 | 0.00 | 0.00 | 0.00 | 10 | 1015.6 |
| 20260502003809 | 21 | 20 | 4.8 | 4.8 | 0.00 | 0.00 | 0.00 | 10 | 1015.8 |
| 20260502003305 | 21 | 20 | 4.8 | 4.8 | 0.00 | 0.00 | 0.00 | 10 | 1015.6 |
| 20260502002801 | 22 | 20 | 0.0 | 0.0 | 0.00 | 0.00 | 0.00 | 10 | 1015.6 |
| 20260502002259 | 21 | 20 | 0.0 | 0.0 | 0.00 | 0.00 | 0.00 | 10 | 1015.8 |
| 20260502001756 | 22 | 20 | 3.2 | 3.2 | 0.00 | 0.00 | 0.00 | 10 | 1015.7 |
| 20260502001255 | 22 | 21 | 0.0 | 0.0 | 0.00 | 0.00 | 0.00 | 10 | 1016.0 |
| 20260502000752 | 22 | 22 | 6.4 | 8.0 | 0.00 | 0.00 | 0.00 | 10 | 1015.8 |
| 20260502000250 | 22 | 24 | 4.8 | 4.8 | 0.00 | 0.00 | 0.00 | 10 | 1015.9 |
| 20260501235744 | 22 | 25 | 6.4 | 8.0 | 0.00 | 0.00 | 0.00 | 10 | 1016.0 |
| 20260501235241 | 22 | 25 | 8.0 | 11.3 | 0.00 | 0.00 | 0.00 | 10 | 1016.0 |
| 20260501234737 | 22 | 27 | 6.4 | 8.0 | 0.00 | 0.00 | 0.00 | 10 | 1016.0 |
| 20260501234234 | 22 | 31 | 4.8 | 8.0 | 0.00 | 0.00 | 0.00 | 10 | 1015.9 |
| 20260501233732 | 22 | 35 | 12.9 | 16.1 | 0.00 | 0.00 | 0.00 | 10 | 1015.8 |
| 20260501233229 | 22 | 31 | 6.4 | 8.0 | 0.00 | 0.00 | 0.00 | 10 | 1015.9 |
| 20260501232724 | 21 | 33 | 4.8 | 4.8 | 0.00 | 0.00 | 0.00 | 10 | 1015.9 |
| 20260501232222 | 21 | 33 | 6.4 | 8.0 | 0.00 | 0.00 | 0.00 | 10 | 1016.0 |
| 20260501231719 | 21 | 32 | 1.6 | 1.6 | 0.00 | 0.00 | 0.00 | 10 | 1016.0 |
| 20260501231217 | 21 | 32 | 4.8 | 4.8 | 0.00 | 0.00 | 0.00 | 10 | 1015.8 |
| 20260501230716 | 21 | 32 | 3.2 | 4.8 | 0.00 | 0.00 | 0.00 | 10 | 1015.9 |
| 20260501230214 | 21 | 31 | 1.6 | 1.6 | 0.00 | 0.00 | 0.00 | 10 | 1015.9 |
| 20260501225711 | 22 | 31 | 4.8 | 4.8 | 0.00 | 0.00 | 0.00 | 10 | 1016.5 |
| 20260501225208 | 21 | 35 | 4.8 | 8.0 | 0.00 | 0.00 | 0.00 | 10 | 1016.4 |
| 20260501224703 | 21 | 34 | 9.7 | 11.3 | 0.00 | 0.00 | 0.00 | 10 | 1016.5 |
| 20260501224201 | 22 | 32 | 0.0 | 0.0 | 0.00 | 0.00 | 0.00 | 10 | 1016.1 |
| 20260501223658 | 22 | 31 | 4.8 | 4.8 | 0.00 | 0.00 | 0.00 | 10 | 1016.3 |
| 20260501223154 | 21 | 32 | 4.8 | 4.8 | 0.00 | 0.00 | 0.00 | 10 | 1016.4 |
| 20260501222650 | 22 | 31 | 3.2 | 3.2 | 0.00 | 0.00 | 0.00 | 10 | 1016.3 |
| 20260501222148 | 22 | 35 | 3.2 | 3.2 | 0.00 | 0.00 | 0.00 | 10 | 1016.4 |
| 20260501221644 | 21 | 41 | 8.0 | 11.3 | 0.00 | 0.00 | 0.00 | 10 | 1016.3 |
| 20260501221137 | 21 | 41 | 4.8 | 8.0 | 0.00 | 0.00 | 0.00 | 10 | 1016.4 |
| 20260501220634 | 21 | 39 | 9.7 | 17.7 | 0.00 | 0.00 | 0.00 | 10 | 1016.7 |
| 20260501220131 | 21 | 37 | 8.0 | 11.3 | 0.00 | 0.00 | 0.00 | 10 | 1016.6 |
| 20260501215627 | 21 | 37 | 3.2 | 3.2 | 0.00 | 0.00 | 0.00 | 10 | 1016.7 |
| 20260501215123 | 21 | 37 | 11.3 | 11.3 | 0.00 | 0.00 | 0.00 | 10 | 1017.0 |
| 20260501214618 | 20 | 38 | 8.0 | 11.3 | 0.00 | 0.00 | 0.00 | 10 | 1016.7 |
| 20260501214114 | 21 | 37 | 11.3 | 12.9 | 0.00 | 0.00 | 0.00 | 10 | 1016.9 |
| 20260501213611 | 21 | 38 | 8.0 | 12.9 | 0.00 | 0.00 | 0.00 | 10 | 1016.8 |
| 20260501213107 | 21 | 40 | 8.0 | 12.9 | 0.00 | 0.00 | 0.00 | 10 | 1016.9 |
| 20260501212604 | 20 | 42 | 4.8 | 4.8 | 0.00 | 0.00 | 0.00 | 10 | 1017.1 |
| 20260501212100 | 20 | 40 | 8.0 | 12.9 | 0.00 | 0.00 | 0.00 | 10 | 1017.1 |
| 20260501211557 | 20 | 36 | 9.7 | 11.3 | 0.00 | 0.00 | 0.00 | 10 | 1017.2 |
| 20260501211055 | 20 | 37 | 9.7 | 11.3 | 0.00 | 0.00 | 0.00 | 10 | 1017.0 |
| 20260501210551 | 20 | 34 | 3.2 | 3.2 | 0.00 | 0.00 | 0.00 | 10 | 1017.2 |
| 20260501210048 | 20 | 35 | 4.8 | 4.8 | 0.00 | 0.00 | 0.00 | 10 | 1017.0 |
| 20260501205544 | 20 | 39 | 1.6 | 1.6 | 0.00 | 0.00 | 0.00 | 10 | 1017.6 |
| 20260501205042 | 20 | 43 | 4.8 | 8.0 | 0.00 | 0.00 | 0.00 | 10 | 1017.5 |
| 20260501204538 | 20 | 34 | 8.0 | 11.3 | 0.00 | 0.00 | 0.00 | 10 | 1017.4 |
| 20260501204034 | 20 | 27 | 11.3 | 16.1 | 0.00 | 0.00 | 0.00 | 10 | 1017.2 |
| 20260501203531 | 20 | 25 | 6.4 | 11.3 | 0.00 | 0.00 | 0.00 | 10 | 1017.2 |
| 20260501203029 | 19 | 25 | 1.6 | 3.2 | 0.00 | 0.00 | 0.00 | 10 | 1017.4 |
| 20260501202526 | 20 | 25 | 3.2 | 4.8 | 0.00 | 0.00 | 0.00 | 10 | 1017.5 |
| 20260501202022 | 20 | 27 | 4.8 | 9.7 | 0.00 | 0.00 | 0.00 | 10 | 1017.5 |
| 20260501201520 | 20 | 24 | 6.4 | 14.5 | 0.00 | 0.00 | 0.00 | 10 | 1017.6 |
| 20260501201016 | 20 | 23 | 8.0 | 12.9 | 0.00 | 0.00 | 0.00 | 10 | 1017.5 |
| 20260501200513 | 20 | 23 | 4.8 | 8.0 | 0.00 | 0.00 | 0.00 | 10 | 1017.5 |
| 20260501200011 | 20 | 22 | 6.4 | 8.0 | 0.00 | 0.00 | 0.00 | 10 | 1017.6 |
| 20260501195507 | 21 | 22 | 1.6 | 3.2 | 0.00 | 0.00 | 0.00 | 10 | 1017.4 |
| 20260501195003 | 21 | 21 | 4.8 | 8.0 | 0.00 | 0.00 | 0.00 | 10 | 1017.5 |